Time;durP1;ratioP1;P1;durP2;ratioP2;P2;SDS_P1;SDS_P2;PMS_P1;PMS_P2;Temp;Humidity;BMP_temperature;BMP_pressure;BME280_temperature;BME280_humidity;BME280_pressure;Samples;Min_cycle;Max_cycle;Signal;HPM_P1;HPM_P2
2021/03/04 00:00:45;;;;;;;58.65;34.92;;;;;;;1.97;69.74;96660.72;5058609;28;20052;-53
2021/03/04 00:03:18;;;;;;;57.53;36.63;;;;;;;1.92;69.73;96664.88;5043277;28;20057;-54
2021/03/04 00:05:46;;;;;;;59.40;35.63;;;;;;;1.86;69.65;96663.81;5052613;28;20048;-53
2021/03/04 00:08:14;;;;;;;61.08;38.92;;;;;;;1.77;69.99;96647.50;5045374;28;20049;-53
2021/03/04 00:10:41;;;;;;;61.58;38.92;;;;;;;1.69;70.14;96653.63;5048547;28;20044;-53
2021/03/04 00:13:09;;;;;;;61.85;36.70;;;;;;;1.63;70.55;96650.94;5042832;28;20056;-53
2021/03/04 00:15:36;;;;;;;66.88;40.83;;;;;;;1.61;71.12;96652.91;5010556;28;20048;-53
2021/03/04 00:18:04;;;;;;;60.20;37.58;;;;;;;1.49;70.81;96649.94;5077303;28;20700;-53
2021/03/04 00:20:33;;;;;;;70.35;39.28;;;;;;;1.41;71.53;96645.66;5050504;28;20060;-54
2021/03/04 00:23:01;;;;;;;70.40;38.70;;;;;;;1.31;71.79;96647.69;5042278;28;20786;-54
2021/03/04 00:25:31;;;;;;;60.80;37.55;;;;;;;1.22;71.81;96644.38;5085654;28;20032;-53
2021/03/04 00:27:59;;;;;;;70.05;41.53;;;;;;;1.17;72.11;96642.28;5049380;28;21340;-54
2021/03/04 00:30:27;;;;;;;72.00;40.70;;;;;;;1.12;72.28;96644.63;5054167;28;20407;-53
2021/03/04 00:32:54;;;;;;;64.30;35.58;;;;;;;1.03;72.81;96641.31;5045880;28;20075;-53
2021/03/04 00:35:22;;;;;;;72.45;37.92;;;;;;;0.96;73.70;96635.22;5053867;28;20052;-53
2021/03/04 00:37:50;;;;;;;74.22;41.38;;;;;;;0.99;73.06;96636.63;5056532;28;20048;-53
2021/03/04 00:40:23;;;;;;;66.30;38.65;;;;;;;0.98;72.66;96632.44;5048319;28;20056;-53
2021/03/04 00:42:51;;;;;;;61.88;38.35;;;;;;;0.95;73.41;96631.00;5047272;28;20056;-53
2021/03/04 00:45:21;;;;;;;63.92;35.85;;;;;;;0.91;72.50;96622.75;5051808;28;20052;-54
2021/03/04 00:48:07;;;;;;;67.65;39.70;;;;;;;0.87;72.42;96618.88;5043382;28;20044;-53
2021/03/04 00:50:36;;;;;;;72.00;38.17;;;;;;;0.84;73.37;96611.44;5045630;28;20044;-53
2021/03/04 00:53:04;;;;;;;64.78;38.60;;;;;;;0.75;72.79;96613.28;5048169;28;20353;-53
2021/03/04 00:55:31;;;;;;;65.05;37.10;;;;;;;0.65;72.44;96607.53;5048740;28;20053;-53
2021/03/04 00:58:00;;;;;;;60.97;37.58;;;;;;;0.58;73.00;96602.25;5053275;28;20048;-53
2021/03/04 01:00:28;;;;;;;60.20;33.88;;;;;;;0.47;72.95;96607.06;5041968;28;20052;-53
2021/03/04 01:02:56;;;;;;;60.72;37.78;;;;;;;0.37;73.33;96596.91;5051295;28;20053;-53
2021/03/04 01:05:24;;;;;;;64.43;37.75;;;;;;;0.34;73.11;96599.84;5069843;28;20060;-53
2021/03/04 01:07:51;;;;;;;62.75;35.55;;;;;;;0.28;73.91;96588.38;5045513;28;20036;-53
2021/03/04 01:10:41;;;;;;;63.22;34.97;;;;;;;0.25;73.40;96592.13;5048464;28;20052;-54
2021/03/04 01:13:09;;;;;;;59.67;33.67;;;;;;;0.21;74.02;96587.47;5034653;28;20060;-53
2021/03/04 01:15:37;;;;;;;59.05;34.50;;;;;;;0.15;74.52;96579.38;5056583;28;20037;-54
2021/03/04 01:18:12;;;;;;;54.53;32.25;;;;;;;0.06;74.20;96566.66;5052589;28;20052;-54
2021/03/04 01:20:40;;;;;;;54.72;31.75;;;;;;;0.09;74.59;96571.47;5051277;28;20053;-55
2021/03/04 01:23:08;;;;;;;63.40;35.13;;;;;;;0.08;74.62;96565.50;5041443;28;20041;-54
2021/03/04 01:25:35;;;;;;;56.20;35.00;;;;;;;0.08;74.55;96559.47;5084569;28;20049;-53
2021/03/04 01:28:03;;;;;;;57.00;34.95;;;;;;;0.02;75.53;96549.81;5030821;28;20083;-53
2021/03/04 01:30:32;;;;;;;60.78;35.95;;;;;;;0.02;75.40;96547.22;5055277;28;20053;-54
2021/03/04 01:33:13;;;;;;;60.80;36.10;;;;;;;-0.02;75.13;96547.56;5049843;28;20053;-59
2021/03/04 01:35:45;;;;;;;56.42;34.22;;;;;;;-0.04;75.50;96543.53;5048910;28;20908;-53
2021/03/04 01:38:14;;;;;;;61.03;34.35;;;;;;;-0.02;75.89;96546.75;5078511;28;20044;-53
2021/03/04 01:40:44;;;;;;;57.95;36.15;;;;;;;0.00;75.03;96555.19;5053234;28;20050;-53
2021/03/04 01:43:12;;;;;;;63.97;37.70;;;;;;;-0.01;75.06;96541.38;5049885;28;20044;-54
2021/03/04 01:45:39;;;;;;;66.72;34.63;;;;;;;-0.02;75.46;96546.75;5049560;28;20833;-53
2021/03/04 01:48:07;;;;;;;56.38;34.40;;;;;;;-0.03;75.60;96547.75;5046710;28;20064;-55
2021/03/04 01:50:35;;;;;;;67.20;33.88;;;;;;;-0.13;76.34;96532.41;5029628;28;20052;-54
2021/03/04 01:53:02;;;;;;;70.20;35.28;;;;;;;-0.05;75.62;96534.94;5051296;28;20080;-53
2021/03/04 01:55:30;;;;;;;53.50;35.25;;;;;;;-0.06;75.33;96532.53;5050998;28;20059;-54
2021/03/04 01:57:57;;;;;;;50.28;33.95;;;;;;;-0.10;75.19;96532.06;5048927;28;20415;-54
2021/03/04 02:00:27;;;;;;;64.82;38.50;;;;;;;-0.13;75.23;96526.41;5025870;28;20083;-53
2021/03/04 02:02:55;;;;;;;58.78;38.42;;;;;;;-0.18;75.01;96521.72;5069152;28;20056;-54
2021/03/04 02:05:23;;;;;;;59.33;35.72;;;;;;;-0.18;75.80;96516.53;5051254;28;20048;-53
2021/03/04 02:08:03;;;;;;;60.80;35.47;;;;;;;-0.21;76.74;96519.50;5041751;28;20048;-54
2021/03/04 02:10:38;;;;;;;65.78;37.60;;;;;;;-0.23;76.60;96511.06;5057472;28;20620;-54
2021/03/04 02:13:13;;;;;;;65.88;38.65;;;;;;;-0.33;76.67;96493.97;5049244;28;20068;-54
2021/03/04 02:16:00;;;;;;;66.43;36.28;;;;;;;-0.31;76.24;96504.94;5049765;28;20068;-53
2021/03/04 02:18:31;;;;;;;61.95;35.05;;;;;;;-0.34;76.06;96507.91;5065625;28;20044;-54
2021/03/04 02:21:20;;;;;;;63.70;35.63;;;;;;;-0.40;76.26;96508.56;5031475;28;20052;-54
2021/03/04 02:24:05;;;;;;;57.55;33.80;;;;;;;-0.39;77.19;96502.41;5020930;28;20056;-53
2021/03/04 02:26:54;;;;;;;60.50;34.23;;;;;;;-0.50;76.73;96484.66;5050049;28;20049;-54
2021/03/04 02:29:23;;;;;;;61.97;37.60;;;;;;;-0.40;76.78;96500.81;5043301;28;20044;-54
2021/03/04 02:31:54;;;;;;;60.55;35.97;;;;;;;-0.43;76.87;96498.53;5042067;28;20053;-53
2021/03/04 02:34:25;;;;;;;59.85;32.80;;;;;;;-0.43;77.31;96492.56;5050509;28;20055;-53
2021/03/04 02:36:53;;;;;;;61.67;32.35;;;;;;;-0.43;77.60;96495.94;5052256;28;20033;-53
2021/03/04 02:39:22;;;;;;;61.55;35.90;;;;;;;-0.42;77.54;96492.38;5050546;28;20056;-53
2021/03/04 02:41:51;;;;;;;59.17;36.40;;;;;;;-0.51;77.95;96489.06;5050402;28;20048;-54
2021/03/04 02:44:20;;;;;;;58.53;33.08;;;;;;;-0.53;77.66;96496.19;5034826;28;20676;-53
2021/03/04 02:46:49;;;;;;;54.78;31.55;;;;;;;-0.56;77.71;96482.78;5046712;28;20050;-53
2021/03/04 02:49:35;;;;;;;56.28;32.20;;;;;;;-0.54;77.23;96493.75;5046526;28;20052;-53
2021/03/04 02:52:05;;;;;;;53.60;32.08;;;;;;;-0.56;76.56;96493.16;5047766;28;20045;-53
2021/03/04 02:54:34;;;;;;;54.60;31.92;;;;;;;-0.56;76.87;96485.38;5044466;28;20060;-53
2021/03/04 02:57:03;;;;;;;63.45;34.53;;;;;;;-0.59;76.84;96480.53;5081756;28;20957;-53
2021/03/04 02:59:32;;;;;;;55.63;31.83;;;;;;;-0.63;77.00;96480.06;5062086;28;20944;-54
2021/03/04 03:02:01;;;;;;;58.17;34.33;;;;;;;-0.70;77.05;96468.75;5045204;28;20684;-53
2021/03/04 03:04:31;;;;;;;61.35;35.13;;;;;;;-0.81;77.96;96472.53;5051988;28;20475;-53
2021/03/04 03:07:00;;;;;;;63.75;36.58;;;;;;;-0.84;77.52;96472.88;5048055;28;20481;-54
2021/03/04 03:09:28;;;;;;;52.67;33.00;;;;;;;-0.85;77.17;96466.88;5042862;28;20324;-53
2021/03/04 03:11:56;;;;;;;61.38;38.40;;;;;;;-0.86;77.91;96469.66;5047578;28;20080;-53
2021/03/04 03:14:23;;;;;;;55.78;36.30;;;;;;;-0.88;77.51;96471.59;5056350;28;20052;-53
2021/03/04 03:16:50;;;;;;;61.25;35.10;;;;;;;-0.84;78.14;96462.50;5053646;28;20049;-54
2021/03/04 03:19:17;;;;;;;56.22;34.28;;;;;;;-0.91;77.54;96464.16;5042227;28;20579;-53
2021/03/04 03:21:47;;;;;;;65.55;35.83;;;;;;;-0.98;77.89;96458.84;5045925;28;20057;-54
2021/03/04 03:24:15;;;;;;;60.50;34.28;;;;;;;-0.99;77.48;96468.41;5049461;28;20408;-53
2021/03/04 03:26:46;;;;;;;60.92;35.72;;;;;;;-1.03;77.71;96466.31;5030246;28;20051;-53
2021/03/04 03:29:14;;;;;;;65.10;36.35;;;;;;;-1.07;78.19;96460.69;5047913;28;20492;-54
2021/03/04 03:31:42;;;;;;;52.60;35.00;;;;;;;-1.11;78.09;96451.63;5033420;28;20052;-53
2021/03/04 03:34:10;;;;;;;55.90;36.80;;;;;;;-1.14;78.58;96457.97;5055600;28;20393;-53
2021/03/04 03:36:38;;;;;;;50.97;33.67;;;;;;;-1.12;78.07;96460.38;5030781;28;20055;-54
2021/03/04 03:39:08;;;;;;;63.08;34.63;;;;;;;-1.14;78.90;96459.72;5056874;28;20048;-53
2021/03/04 03:41:39;;;;;;;57.53;34.75;;;;;;;-1.13;78.69;96466.53;5054770;28;20051;-53
2021/03/04 03:44:12;;;;;;;59.38;38.30;;;;;;;-1.17;78.75;96467.84;5055021;28;20053;-53
2021/03/04 03:46:41;;;;;;;56.67;37.05;;;;;;;-1.19;78.04;96469.78;5044833;28;20045;-53
2021/03/04 03:49:12;;;;;;;57.60;37.17;;;;;;;-1.20;78.41;96466.38;5039963;28;20181;-53
2021/03/04 03:51:40;;;;;;;56.38;36.28;;;;;;;-1.20;78.47;96463.00;5052568;28;20049;-53
2021/03/04 03:54:08;;;;;;;59.35;36.60;;;;;;;-1.20;78.25;96465.59;5049006;28;20630;-54
2021/03/04 03:56:39;;;;;;;69.25;38.42;;;;;;;-1.21;78.76;96458.78;5036880;28;20064;-53
2021/03/04 03:59:08;;;;;;;62.33;37.13;;;;;;;-1.20;79.42;96458.63;5053724;28;20055;-53
2021/03/04 04:01:39;;;;;;;56.70;33.35;;;;;;;-1.24;79.89;96454.75;5027875;28;20402;-53
2021/03/04 04:04:07;;;;;;;52.78;34.95;;;;;;;-1.21;79.73;96451.81;5052031;28;20373;-53
2021/03/04 04:06:34;;;;;;;58.25;34.40;;;;;;;-1.15;80.07;96447.75;5050742;28;20428;-53
2021/03/04 04:09:02;;;;;;;69.88;37.35;;;;;;;-1.15;79.28;96458.09;5055506;28;21787;-54
2021/03/04 04:11:30;;;;;;;53.00;33.95;;;;;;;-1.12;79.07;96444.84;5053873;28;20527;-53
2021/03/04 04:13:57;;;;;;;58.40;33.80;;;;;;;-1.11;79.39;96446.44;5048826;28;20052;-54
2021/03/04 04:16:26;;;;;;;54.85;33.85;;;;;;;-1.09;79.08;96439.31;5045066;28;20452;-53
2021/03/04 04:18:56;;;;;;;59.80;34.53;;;;;;;-1.08;78.95;96436.56;5045562;28;20044;-53
2021/03/04 04:21:24;;;;;;;66.90;38.08;;;;;;;-1.14;79.20;96437.25;5036701;28;20416;-54
2021/03/04 04:23:52;;;;;;;56.33;37.35;;;;;;;-1.13;79.03;96443.22;5044293;28;20059;-54
2021/03/04 04:26:20;;;;;;;64.55;39.00;;;;;;;-1.14;78.92;96437.25;5050265;28;20052;-54
2021/03/04 04:28:48;;;;;;;62.67;36.30;;;;;;;-1.16;78.84;96434.00;5054498;28;20049;-53
2021/03/04 04:31:16;;;;;;;56.40;34.85;;;;;;;-1.27;78.97;96419.66;5038312;28;20451;-54
2021/03/04 04:33:43;;;;;;;65.72;37.95;;;;;;;-1.16;79.38;96428.00;5047355;28;20053;-53
2021/03/04 04:36:11;;;;;;;64.15;37.70;;;;;;;-1.12;78.97;96427.53;5033542;28;20386;-53
2021/03/04 04:38:38;;;;;;;74.82;42.33;;;;;;;-1.26;79.76;96407.53;5032865;28;20060;-53
2021/03/04 04:41:05;;;;;;;70.47;38.95;;;;;;;-1.21;79.57;96413.00;5053948;28;20056;-53
2021/03/04 04:43:32;;;;;;;74.00;38.83;;;;;;;-1.16;79.80;96421.06;5045144;28;20056;-53
2021/03/04 04:46:01;;;;;;;60.67;37.60;;;;;;;-1.13;79.38;96417.31;5049201;28;20045;-53
2021/03/04 04:48:28;;;;;;;62.72;37.03;;;;;;;-1.15;80.09;96419.28;5046728;28;20072;-54
2021/03/04 04:51:11;;;;;;;62.70;38.05;;;;;;;-1.14;79.72;96410.53;5055411;28;20060;-53
2021/03/04 04:53:40;;;;;;;65.45;37.65;;;;;;;-1.18;79.69;96414.47;5037340;28;20435;-53
2021/03/04 04:56:08;;;;;;;62.60;36.22;;;;;;;-1.14;79.65;96402.75;5033570;28;20420;-53
2021/03/04 04:58:39;;;;;;;69.28;36.25;;;;;;;-1.15;79.33;96409.75;5041843;28;20528;-53
2021/03/04 05:01:07;;;;;;;61.95;35.00;;;;;;;-1.12;78.87;96403.41;5055340;28;20048;-53
2021/03/04 05:03:34;;;;;;;57.67;34.63;;;;;;;-1.20;79.27;96390.50;5035702;28;20463;-53
2021/03/04 05:06:01;;;;;;;56.40;34.70;;;;;;;-1.12;79.07;96393.06;5050860;28;20037;-53
2021/03/04 05:08:29;;;;;;;58.58;33.75;;;;;;;-1.09;79.31;96390.13;5050067;28;20049;-53
2021/03/04 05:10:56;;;;;;;60.60;35.17;;;;;;;-1.09;79.23;96383.16;5045944;28;20060;-53
2021/03/04 05:13:23;;;;;;;58.28;35.50;;;;;;;-1.06;79.25;96382.03;5048314;28;20059;-54
2021/03/04 05:15:50;;;;;;;56.25;35.53;;;;;;;-1.03;79.26;96386.84;5049819;28;20075;-53
2021/03/04 05:18:17;;;;;;;55.92;32.95;;;;;;;-1.00;79.01;96376.16;5049403;28;20044;-54
2021/03/04 05:20:44;;;;;;;61.28;33.92;;;;;;;-0.96;78.86;96379.22;5044463;28;20048;-53
2021/03/04 05:23:12;;;;;;;57.08;33.55;;;;;;;-0.93;78.67;96361.56;5051224;28;20063;-53
2021/03/04 05:25:41;;;;;;;70.15;33.63;;;;;;;-0.97;79.12;96349.94;5054948;28;20048;-54
2021/03/04 05:28:08;;;;;;;63.00;35.38;;;;;;;-0.90;78.83;96357.00;5047102;28;20045;-54
2021/03/04 05:30:35;;;;;;;61.28;35.30;;;;;;;-0.88;78.61;96362.81;5052171;28;20040;-54
2021/03/04 05:33:03;;;;;;;52.50;35.05;;;;;;;-0.87;79.11;96361.84;5049124;28;20060;-53
2021/03/04 05:35:31;;;;;;;62.22;34.92;;;;;;;-0.85;79.12;96354.72;5046631;28;20052;-53
2021/03/04 05:37:58;;;;;;;64.80;37.10;;;;;;;-0.84;78.38;96364.88;5052408;28;20049;-53
2021/03/04 05:40:25;;;;;;;68.80;41.28;;;;;;;-0.80;78.38;96371.34;5048882;28;20048;-53
2021/03/04 05:42:52;;;;;;;65.65;40.65;;;;;;;-0.79;78.34;96364.34;5033699;28;20075;-53
2021/03/04 05:45:20;;;;;;;62.38;39.17;;;;;;;-0.81;78.94;96356.78;5053432;28;20052;-53
2021/03/04 05:47:51;;;;;;;68.18;41.47;;;;;;;-0.85;78.84;96354.72;5029922;28;20527;-55
2021/03/04 05:50:21;;;;;;;66.85;39.58;;;;;;;-0.79;78.88;96361.78;5038343;28;20056;-56
2021/03/04 05:52:54;;;;;;;58.95;38.45;;;;;;;-0.78;78.33;96348.66;5043602;28;20427;-53
2021/03/04 05:55:22;;;;;;;66.07;36.33;;;;;;;-0.74;78.45;96343.94;5048534;28;20064;-53
2021/03/04 05:57:51;;;;;;;67.10;40.33;;;;;;;-0.69;78.42;96346.81;5038792;28;20048;-54
2021/03/04 06:00:19;;;;;;;62.75;35.97;;;;;;;-0.64;78.80;96339.31;5039644;28;20047;-54
2021/03/04 06:02:47;;;;;;;60.25;34.70;;;;;;;-0.62;78.63;96355.50;5048918;28;20071;-54
2021/03/04 06:05:18;;;;;;;64.65;37.35;;;;;;;-0.54;78.96;96340.84;5038362;28;20040;-53
2021/03/04 06:07:46;;;;;;;71.95;39.40;;;;;;;-0.59;78.58;96348.38;5038549;28;20040;-53
2021/03/04 06:10:16;;;;;;;66.15;40.90;;;;;;;-0.62;78.88;96337.38;5018445;28;20908;-54
2021/03/04 06:12:43;;;;;;;68.95;41.83;;;;;;;-0.59;79.06;96331.03;5044802;28;20054;-54
2021/03/04 06:15:11;;;;;;;61.45;40.63;;;;;;;-0.58;78.80;96334.44;5028979;28;20047;-54
2021/03/04 06:17:38;;;;;;;71.38;42.90;;;;;;;-0.56;78.07;96335.88;5017940;28;20048;-53
2021/03/04 06:20:08;;;;;;;70.43;41.13;;;;;;;-0.48;78.73;96347.94;5041095;28;20057;-53
2021/03/04 06:22:38;;;;;;;66.55;43.63;;;;;;;-0.47;78.54;96342.59;5034598;28;20854;-53
2021/03/04 06:25:08;;;;;;;66.63;39.67;;;;;;;-0.37;78.14;96336.38;5058895;28;20327;-54
2021/03/04 06:27:40;;;;;;;74.85;43.40;;;;;;;-0.32;78.36;96337.44;5034427;28;20049;-54
2021/03/04 06:30:11;;;;;;;76.53;42.97;;;;;;;-0.23;78.63;96342.56;5031885;28;20882;-54
2021/03/04 06:32:41;;;;;;;71.75;42.05;;;;;;;-0.17;77.90;96327.09;5044071;28;20056;-53
2021/03/04 06:35:09;;;;;;;73.25;40.65;;;;;;;-0.09;77.88;96323.63;5076069;28;20324;-54
2021/03/04 06:37:45;;;;;;;71.40;43.15;;;;;;;0.00;78.40;96334.72;5045612;28;20040;-54
2021/03/04 06:40:25;;;;;;;71.40;40.20;;;;;;;0.10;78.50;96335.25;5064573;28;20083;-54
2021/03/04 06:42:54;;;;;;;73.35;44.42;;;;;;;0.17;78.09;96329.34;5021100;28;20059;-53
2021/03/04 06:45:24;;;;;;;80.93;47.08;;;;;;;0.21;77.88;96328.00;5047221;28;20041;-53
2021/03/04 06:47:53;;;;;;;75.28;45.22;;;;;;;0.23;78.49;96326.03;5054866;28;20044;-53
2021/03/04 06:50:25;;;;;;;74.55;45.92;;;;;;;0.37;77.76;96322.59;5035567;28;20036;-58
2021/03/04 06:52:52;;;;;;;74.47;44.35;;;;;;;0.45;78.00;96329.50;5047794;28;20048;-53
2021/03/04 06:55:20;;;;;;;71.85;45.03;;;;;;;0.48;77.14;96321.34;5043376;28;20064;-53
2021/03/04 06:58:01;;;;;;;74.40;45.47;;;;;;;0.53;77.97;96310.41;5047461;28;20060;-53
2021/03/04 07:00:29;;;;;;;71.38;43.25;;;;;;;0.60;77.62;96313.91;5035107;28;20045;-53
2021/03/04 07:02:58;;;;;;;82.55;44.67;;;;;;;0.67;77.53;96309.59;5031676;28;20523;-53
2021/03/04 07:05:26;;;;;;;78.38;45.10;;;;;;;0.80;75.67;96298.53;5019205;28;20052;-54
2021/03/04 07:07:57;;;;;;;69.90;44.35;;;;;;;0.85;76.36;96301.38;5038843;28;20045;-54
2021/03/04 07:10:26;;;;;;;72.15;45.58;;;;;;;0.92;76.39;96304.84;5039665;28;20384;-54
2021/03/04 07:12:53;;;;;;;63.25;41.45;;;;;;;1.02;75.28;96293.38;5044516;28;20049;-53
2021/03/04 07:15:21;;;;;;;78.82;45.92;;;;;;;1.08;74.46;96279.63;5038000;28;22836;-54
2021/03/04 07:17:50;;;;;;;71.40;47.08;;;;;;;1.29;74.52;96299.59;5040290;28;20033;-54
2021/03/04 07:20:20;;;;;;;69.28;44.13;;;;;;;1.39;74.61;96296.69;5024793;28;20056;-54
2021/03/04 07:23:07;;;;;;;61.80;42.22;;;;;;;1.47;73.88;96288.75;5019694;28;20048;-53
2021/03/04 07:25:35;;;;;;;80.28;44.67;;;;;;;1.52;74.39;96285.56;5037490;28;20072;-53
2021/03/04 07:28:04;;;;;;;65.57;39.85;;;;;;;1.58;74.34;96281.41;5038971;28;20033;-54
2021/03/04 07:30:33;;;;;;;75.57;40.58;;;;;;;1.65;73.54;96290.06;5039417;28;20060;-54
2021/03/04 07:33:01;;;;;;;66.53;41.63;;;;;;;1.71;73.47;96285.91;5045503;28;20401;-53
2021/03/04 07:35:29;;;;;;;76.38;39.67;;;;;;;1.75;74.08;96280.13;5044633;28;20404;-53
2021/03/04 07:37:56;;;;;;;57.42;35.10;;;;;;;1.86;72.43;96270.19;5065755;28;20064;-53
2021/03/04 07:40:23;;;;;;;72.10;39.30;;;;;;;1.93;72.40;96271.03;5038216;28;20053;-54
2021/03/04 07:43:01;;;;;;;71.05;39.50;;;;;;;2.03;71.10;96261.06;5037656;28;20043;-54
2021/03/04 07:45:29;;;;;;;61.75;37.28;;;;;;;2.02;71.71;96258.66;5032870;28;20061;-54
2021/03/04 07:48:07;;;;;;;72.55;40.28;;;;;;;2.15;71.80;96262.13;5033565;28;20135;-53
2021/03/04 07:50:35;;;;;;;62.28;37.83;;;;;;;2.29;71.54;96241.34;5043806;28;20056;-58
2021/03/04 07:53:21;;;;;;;65.63;36.53;;;;;;;2.46;71.45;96252.25;5022113;28;20064;-56
2021/03/04 07:55:48;;;;;;;59.15;35.72;;;;;;;2.57;71.08;96256.06;5043270;28;20053;-54
2021/03/04 07:58:17;;;;;;;59.88;38.42;;;;;;;2.65;69.41;96253.28;5037250;28;20275;-53
2021/03/04 08:00:45;;;;;;;60.15;37.63;;;;;;;2.78;68.94;96257.72;5026523;28;21101;-54
2021/03/04 08:03:13;;;;;;;59.22;36.90;;;;;;;2.94;68.77;96253.94;5036274;28;20051;-54
2021/03/04 08:05:43;;;;;;;59.65;36.88;;;;;;;3.03;67.71;96254.56;5081553;28;20052;-54
2021/03/04 08:08:18;;;;;;;53.30;34.72;;;;;;;3.15;67.65;96236.50;5038698;28;20045;-54
2021/03/04 08:10:54;;;;;;;45.53;33.72;;;;;;;3.31;66.96;96236.13;5051846;28;20048;-55
2021/03/04 08:13:32;;;;;;;60.13;33.50;;;;;;;3.46;66.14;96238.50;5050073;28;20053;-59
2021/03/04 08:15:59;;;;;;;52.72;31.20;;;;;;;3.56;65.84;96247.75;5064096;28;20056;-54
2021/03/04 08:18:27;;;;;;;45.83;27.73;;;;;;;3.63;65.29;96240.72;5076965;28;20071;-56
2021/03/04 08:21:04;;;;;;;44.40;29.75;;;;;;;3.67;65.38;96242.69;5055561;28;20052;-57
2021/03/04 08:23:48;;;;;;;46.75;29.52;;;;;;;3.78;65.03;96230.03;5059089;28;20056;-56
2021/03/04 08:26:21;;;;;;;44.13;29.65;;;;;;;3.87;64.33;96228.00;5038556;28;20053;-57
2021/03/04 08:29:05;;;;;;;49.08;31.30;;;;;;;3.92;63.80;96215.94;5044564;28;20556;-62
2021/03/04 08:31:34;;;;;;;53.72;32.22;;;;;;;3.93;64.10;96206.31;5037964;28;20086;-56
2021/03/04 08:34:02;;;;;;;53.15;32.65;;;;;;;3.96;63.82;96211.94;5054021;28;20126;-56
2021/03/04 08:36:50;;;;;;;59.80;35.30;;;;;;;3.98;63.80;96215.13;5034463;28;20559;-56
2021/03/04 08:39:19;;;;;;;56.95;35.90;;;;;;;3.95;64.28;96210.31;5048682;28;20052;-55
2021/03/04 08:41:46;;;;;;;68.18;36.60;;;;;;;4.06;64.13;96216.69;5045680;28;20193;-59
2021/03/04 08:44:17;;;;;;;63.72;35.20;;;;;;;4.13;63.82;96208.84;5060751;28;20049;-57
2021/03/04 08:46:50;;;;;;;63.33;34.92;;;;;;;4.17;63.81;96207.44;5087699;27;20758;-55
2021/03/04 08:49:21;;;;;;;62.53;37.90;;;;;;;4.22;63.77;96205.00;5058425;28;20036;-54
2021/03/04 08:51:51;;;;;;;77.57;42.30;;;;;;;4.32;63.11;96191.47;5051970;28;20056;-54
2021/03/04 08:54:29;;;;;;;67.95;40.08;;;;;;;4.39;63.25;96205.31;5054326;28;20045;-55
2021/03/04 08:56:56;;;;;;;77.60;41.95;;;;;;;4.49;63.56;96197.03;5056706;28;20052;-55
2021/03/04 08:59:25;;;;;;;79.55;43.42;;;;;;;4.57;63.55;96198.56;5040984;28;20061;-58
2021/03/04 09:01:54;;;;;;;69.05;43.83;;;;;;;4.68;62.98;96182.22;5054158;28;20049;-58
2021/03/04 09:04:23;;;;;;;70.45;40.85;;;;;;;4.81;62.33;96186.59;5056596;28;20055;-55
2021/03/04 09:06:51;;;;;;;65.55;40.47;;;;;;;4.87;62.62;96190.94;5052466;28;20052;-57
2021/03/04 09:09:28;;;;;;;75.75;40.35;;;;;;;4.99;62.31;96192.88;5050199;28;20057;-59
2021/03/04 09:11:57;;;;;;;66.43;41.67;;;;;;;5.14;62.25;96190.75;5049243;28;20049;-55
2021/03/04 09:14:30;;;;;;;60.30;40.42;;;;;;;5.21;61.62;96183.66;5057055;28;20041;-57
2021/03/04 09:16:58;;;;;;;70.30;40.40;;;;;;;5.31;61.05;96184.97;5051916;28;20048;-59
2021/03/04 09:19:32;;;;;;;61.67;39.28;;;;;;;5.43;61.25;96183.25;5039142;28;20055;-56
2021/03/04 09:22:04;;;;;;;68.32;38.92;;;;;;;5.48;60.38;96167.69;5053580;28;20068;-56
2021/03/04 09:24:33;;;;;;;60.33;38.33;;;;;;;5.54;60.91;96169.47;5050582;28;20075;-56
2021/03/04 09:27:08;;;;;;;70.90;41.72;;;;;;;5.66;60.60;96171.34;5046993;28;20052;-56
2021/03/04 09:29:41;;;;;;;68.28;40.33;;;;;;;5.81;60.70;96171.81;5046653;28;20041;-55
2021/03/04 09:32:08;;;;;;;66.15;42.20;;;;;;;5.96;59.88;96160.94;5047040;28;20052;-55
2021/03/04 09:34:43;;;;;;;68.40;44.17;;;;;;;6.13;59.87;96161.16;5045322;28;20079;-58
2021/03/04 09:37:13;;;;;;;64.40;42.33;;;;;;;6.21;60.17;96148.81;5057087;28;20044;-55
2021/03/04 09:39:48;;;;;;;63.50;36.55;;;;;;;6.34;60.04;96140.75;5053783;28;20063;-55
2021/03/04 09:42:41;;;;;;;69.85;37.75;;;;;;;6.46;60.12;96141.56;5054832;28;20052;-57
2021/03/04 09:45:10;;;;;;;57.80;35.60;;;;;;;6.59;60.35;96137.97;5039693;28;20049;-55
2021/03/04 09:47:46;;;;;;;58.88;36.60;;;;;;;6.72;60.13;96136.97;5037497;28;20049;-56
2021/03/04 09:50:28;;;;;;;65.65;37.53;;;;;;;6.86;59.33;96134.94;5050674;28;20460;-55
2021/03/04 09:53:04;;;;;;;71.72;39.17;;;;;;;6.91;59.94;96126.41;5047458;28;20048;-56
2021/03/04 09:55:40;;;;;;;68.47;40.65;;;;;;;6.93;59.76;96121.75;5047798;28;20056;-55
2021/03/04 09:58:08;;;;;;;;;;;;;;;6.99;59.99;96115.56;5049455;28;20052;-56
2021/03/04 10:00:35;;;;;;;59.78;37.50;;;;;;;7.05;59.49;96125.16;5079056;28;19940;-55
2021/03/04 10:03:08;;;;;;;61.20;39.88;;;;;;;7.09;58.82;96115.00;5044843;28;20055;-56
2021/03/04 10:05:48;;;;;;;74.15;46.15;;;;;;;7.16;59.77;96112.28;5049103;28;20466;-54
2021/03/04 10:08:17;;;;;;;70.75;46.00;;;;;;;7.26;59.24;96109.88;5055085;28;20141;-58
2021/03/04 10:10:45;;;;;;;73.63;46.88;;;;;;;7.34;58.38;96099.00;5039605;28;20622;-55
2021/03/04 10:13:13;;;;;;;69.53;43.78;;;;;;;7.52;58.62;96103.31;5037067;28;20064;-55
2021/03/04 10:15:42;;;;;;;75.07;48.83;;;;;;;7.59;58.35;96099.78;5025058;28;21896;-55
2021/03/04 10:18:12;;;;;;;71.88;45.33;;;;;;;7.72;58.37;96091.66;5040004;28;20054;-56
2021/03/04 10:20:44;;;;;;;67.97;43.38;;;;;;;7.85;57.72;96095.81;5046913;28;20415;-55
2021/03/04 10:23:16;;;;;;;62.90;41.42;;;;;;;7.87;57.02;96098.25;5043547;28;20052;-55
2021/03/04 10:25:44;;;;;;;54.85;36.33;;;;;;;7.98;57.02;96095.56;5050533;28;20409;-55
2021/03/04 10:28:11;;;;;;;57.88;40.58;;;;;;;8.15;57.09;96084.31;5054787;28;21133;-55
2021/03/04 10:30:39;;;;;;;62.00;38.33;;;;;;;8.26;57.19;96085.25;5027057;28;20049;-56
2021/03/04 10:33:06;;;;;;;71.97;40.10;;;;;;;8.44;56.80;96084.25;5041152;28;20519;-55
2021/03/04 10:35:37;;;;;;;69.55;38.50;;;;;;;8.58;56.05;96074.28;5043690;28;20075;-56
2021/03/04 10:38:04;;;;;;;67.63;39.35;;;;;;;8.71;56.05;96076.59;5040148;28;20504;-56
2021/03/04 10:40:32;;;;;;;62.33;39.15;;;;;;;8.82;55.36;96067.00;5040510;28;20045;-55
2021/03/04 10:42:59;;;;;;;54.15;38.08;;;;;;;8.97;55.68;96070.91;5058773;28;20056;-55
2021/03/04 10:45:26;;;;;;;58.25;37.55;;;;;;;9.06;54.67;96064.19;5052245;28;20064;-55
2021/03/04 10:47:54;;;;;;;62.90;38.30;;;;;;;9.05;54.85;96054.69;5041475;28;20261;-56
2021/03/04 10:50:23;;;;;;;66.00;42.30;;;;;;;9.16;54.83;96063.53;5040162;28;20045;-58
2021/03/04 10:52:51;;;;;;;65.93;44.88;;;;;;;9.16;55.00;96056.44;5047661;28;20476;-56
2021/03/04 10:55:37;;;;;;;66.93;43.58;;;;;;;9.21;54.53;96056.50;5023970;28;20071;-57
2021/03/04 10:58:04;;;;;;;72.82;43.70;;;;;;;9.30;54.16;96058.72;5043239;28;20056;-56
2021/03/04 11:00:31;;;;;;;64.22;44.38;;;;;;;9.40;54.48;96050.97;5041763;28;20048;-56
2021/03/04 11:02:58;;;;;;;63.65;43.65;;;;;;;9.46;55.22;96042.06;5041024;28;20500;-56
2021/03/04 11:05:26;;;;;;;69.18;41.20;;;;;;;9.58;55.28;96041.16;5041167;28;20815;-55
2021/03/04 11:07:53;;;;;;;67.63;40.28;;;;;;;9.60;55.49;96044.34;5056172;28;20056;-56
2021/03/04 11:10:20;;;;;;;64.00;40.30;;;;;;;9.71;55.97;96045.25;5017498;28;20049;-57
2021/03/04 11:12:48;;;;;;;54.83;36.38;;;;;;;9.77;55.33;96029.25;5043990;28;21034;-54
2021/03/04 11:15:16;;;;;;;60.50;36.28;;;;;;;9.91;54.75;96034.16;5040411;28;20616;-60
2021/03/04 11:17:43;;;;;;;62.35;37.25;;;;;;;9.96;54.16;96021.81;5022456;28;20362;-55
2021/03/04 11:20:12;;;;;;;63.35;37.28;;;;;;;10.05;55.02;96016.88;5030637;28;20044;-56
2021/03/04 11:22:41;;;;;;;71.25;38.38;;;;;;;10.22;54.38;96016.75;5040388;28;20080;-56
2021/03/04 11:25:18;;;;;;;67.55;35.15;;;;;;;10.29;53.71;96003.38;5045203;28;20424;-55
2021/03/04 11:28:11;;;;;;;73.65;39.78;;;;;;;10.30;54.00;96011.03;5039024;28;20072;-56
2021/03/04 11:30:38;;;;;;;70.53;39.20;;;;;;;10.30;53.98;95997.06;5016288;28;20053;-57
2021/03/04 11:33:11;;;;;;;64.85;40.42;;;;;;;10.35;54.32;95994.47;5035807;28;20355;-55
2021/03/04 11:35:39;;;;;;;60.63;38.58;;;;;;;10.44;54.06;95989.56;5056840;28;20068;-55